Time;durP1;ratioP1;P1;durP2;ratioP2;P2;SDS_P1;SDS_P2;PMS_P1;PMS_P2;Temp;Humidity;BMP_temperature;BMP_pressure;BME280_temperature;BME280_humidity;BME280_pressure;Samples;Min_cycle;Max_cycle;Signal;HPM_P1;HPM_P2
2023/04/25 00:00:29;;;;;;;24.77;8.82;;;9.70;99.90;;;;;;5114630;27;20030;-69
2023/04/25 00:02:56;;;;;;;24.40;8.43;;;9.70;99.90;;;;;;5117798;27;20035;-69
2023/04/25 00:05:23;;;;;;;21.48;8.70;;;9.70;99.90;;;;;;5115623;27;20732;-69
2023/04/25 00:07:50;;;;;;;23.23;8.23;;;9.60;99.90;;;;;;5114235;27;20023;-69
2023/04/25 00:10:15;;;;;;;26.45;8.13;;;9.60;99.90;;;;;;5116017;27;20027;-68
2023/04/25 00:12:41;;;;;;;24.75;8.90;;;9.60;99.90;;;;;;5116170;27;20027;-69
2023/04/25 00:15:08;;;;;;;20.02;7.88;;;9.60;99.90;;;;;;5119662;27;20046;-69
2023/04/25 00:17:34;;;;;;;23.98;8.57;;;9.60;99.90;;;;;;5120440;27;20039;-69
2023/04/25 00:20:04;;;;;;;28.60;8.77;;;9.50;99.90;;;;;;5119268;27;20040;-69
2023/04/25 00:22:31;;;;;;;21.90;8.95;;;9.50;99.90;;;;;;5116372;27;20106;-69
2023/04/25 00:24:59;;;;;;;18.98;8.32;;;9.50;99.90;;;;;;5115774;27;20019;-68
2023/04/25 00:27:26;;;;;;;23.42;8.25;;;9.50;99.90;;;;;;5112378;27;20499;-69
2023/04/25 00:29:52;;;;;;;22.13;8.00;;;9.40;99.90;;;;;;5116860;27;20501;-69
2023/04/25 00:32:17;;;;;;;19.17;6.95;;;9.40;99.90;;;;;;5117792;27;20035;-69
2023/04/25 00:34:43;;;;;;;15.98;6.55;;;9.40;99.90;;;;;;5114067;27;20453;-70
2023/04/25 00:37:09;;;;;;;16.98;6.72;;;9.40;99.90;;;;;;5113638;27;20043;-69
2023/04/25 00:39:34;;;;;;;19.92;6.80;;;9.40;99.90;;;;;;5118204;27;20035;-69
2023/04/25 00:42:01;;;;;;;20.63;7.15;;;9.30;99.90;;;;;;5118381;27;20690;-68
2023/04/25 00:44:29;;;;;;;20.05;7.38;;;9.30;99.90;;;;;;5114951;27;20027;-69
2023/04/25 00:46:55;;;;;;;27.23;8.77;;;9.20;99.90;;;;;;5117567;27;20521;-69
2023/04/25 00:49:21;;;;;;;20.95;7.70;;;9.10;99.90;;;;;;5116361;27;20046;-69
2023/04/25 00:51:46;;;;;;;20.10;8.52;;;9.10;99.90;;;;;;5112896;27;20411;-69
2023/04/25 00:54:14;;;;;;;22.10;8.02;;;9.10;99.90;;;;;;5113222;27;20107;-69
2023/04/25 00:56:40;;;;;;;24.30;8.75;;;9.10;99.90;;;;;;5116877;27;20036;-68
2023/04/25 00:59:06;;;;;;;17.67;7.75;;;9.20;99.90;;;;;;5116081;27;20550;-68
2023/04/25 01:01:32;;;;;;;29.65;9.13;;;9.20;99.90;;;;;;5112216;27;20023;-68
2023/04/25 01:03:58;;;;;;;25.88;9.40;;;9.10;99.90;;;;;;5119707;27;20095;-69
2023/04/25 01:06:24;;;;;;;28.80;9.35;;;9.10;99.90;;;;;;5116840;27;20486;-69
2023/04/25 01:08:51;;;;;;;24.08;9.60;;;9.10;99.90;;;;;;5121001;27;20027;-69
2023/04/25 01:11:17;;;;;;;17.48;8.73;;;9.10;99.90;;;;;;5116060;27;20026;-69
2023/04/25 01:13:43;;;;;;;23.48;9.68;;;9.10;99.90;;;;;;5116462;27;20028;-69
2023/04/25 01:16:08;;;;;;;28.45;8.68;;;9.00;99.90;;;;;;5116499;27;20503;-69
2023/04/25 01:18:34;;;;;;;18.90;7.63;;;9.10;99.90;;;;;;5133679;27;20542;-69
2023/04/25 01:21:11;;;;;;;25.00;7.70;;;9.00;99.90;;;;;;5133633;27;20027;-69
2023/04/25 01:23:40;;;;;;;18.92;7.22;;;9.00;99.90;;;;;;5134234;27;20444;-69
2023/04/25 01:26:08;;;;;;;20.50;8.57;;;9.00;99.90;;;;;;5134309;27;20019;-68
2023/04/25 01:28:34;;;;;;;21.63;7.63;;;9.00;99.90;;;;;;5132287;27;20059;-69
2023/04/25 01:31:01;;;;;;;24.77;8.05;;;8.90;99.90;;;;;;5134674;27;20023;-69
2023/04/25 01:33:27;;;;;;;19.48;7.75;;;9.00;99.90;;;;;;5132389;27;20106;-69
2023/04/25 01:35:53;;;;;;;23.75;8.98;;;8.90;99.90;;;;;;5134110;27;20105;-69
2023/04/25 01:38:19;;;;;;;23.08;9.55;;;8.80;99.90;;;;;;5134190;27;20015;-69
2023/04/25 01:40:46;;;;;;;24.63;8.10;;;8.90;99.90;;;;;;5134161;27;20432;-69
2023/04/25 01:43:14;;;;;;;18.23;9.35;;;8.90;99.90;;;;;;5134281;27;20054;-69
2023/04/25 01:45:41;;;;;;;29.58;10.07;;;9.00;99.90;;;;;;5134122;27;20446;-69
2023/04/25 01:48:11;;;;;;;25.15;8.93;;;8.90;99.90;;;;;;5133762;27;20144;-69
2023/04/25 01:50:38;;;;;;;25.65;8.75;;;8.90;99.90;;;;;;5133414;27;20011;-69
2023/04/25 01:53:04;;;;;;;24.30;9.00;;;8.90;99.90;;;;;;5130565;27;20383;-69
2023/04/25 01:55:30;;;;;;;35.70;9.10;;;8.80;99.90;;;;;;5132939;27;20094;-69
2023/04/25 01:57:56;;;;;;;22.80;8.63;;;8.80;99.90;;;;;;5133947;27;20157;-69
2023/04/25 02:00:22;;;;;;;25.70;9.32;;;8.80;99.90;;;;;;5133396;27;20662;-70
2023/04/25 02:02:50;;;;;;;24.33;9.13;;;8.70;99.90;;;;;;5132904;27;20556;-69
2023/04/25 02:05:16;;;;;;;29.08;9.38;;;8.70;99.90;;;;;;5133739;27;20022;-69
2023/04/25 02:07:42;;;;;;;29.17;9.35;;;8.70;99.90;;;;;;5133246;27;20015;-69
2023/04/25 02:10:08;;;;;;;22.73;8.60;;;8.70;99.90;;;;;;5133319;27;20033;-69
2023/04/25 02:12:36;;;;;;;24.60;9.88;;;8.80;99.90;;;;;;5133345;27;20035;-68
2023/04/25 02:15:01;;;;;;;21.75;8.38;;;8.70;99.90;;;;;;5133382;27;20012;-69
2023/04/25 02:17:27;;;;;;;24.38;8.98;;;8.70;99.90;;;;;;5133394;27;20042;-69
2023/04/25 02:19:53;;;;;;;25.67;9.00;;;8.70;99.90;;;;;;5133406;27;20015;-69
2023/04/25 02:22:19;;;;;;;23.98;9.02;;;8.70;99.90;;;;;;5132271;27;20026;-68
2023/04/25 02:24:46;;;;;;;23.15;7.63;;;8.60;99.90;;;;;;5133204;27;20072;-68
2023/04/25 02:27:12;;;;;;;24.33;9.60;;;8.60;99.90;;;;;;5133578;27;20015;-69
2023/04/25 02:29:38;;;;;;;23.75;9.70;;;8.60;99.90;;;;;;5133207;27;20396;-69
2023/04/25 02:32:03;;;;;;;24.73;9.02;;;8.70;99.90;;;;;;5133411;27;20016;-69
2023/04/25 02:34:29;;;;;;;25.55;9.45;;;8.70;99.90;;;;;;5133361;27;20090;-69
2023/04/25 02:36:55;;;;;;;22.73;8.85;;;8.70;99.90;;;;;;5132578;27;20382;-69
2023/04/25 02:39:22;;;;;;;25.58;9.73;;;8.70;99.90;;;;;;5129085;27;20404;-69
2023/04/25 02:41:47;;;;;;;24.15;9.18;;;8.70;99.90;;;;;;5131793;27;20023;-68
2023/04/25 02:44:13;;;;;;;24.30;10.05;;;8.70;99.90;;;;;;5132959;27;20136;-68
2023/04/25 02:46:39;;;;;;;29.52;10.27;;;8.70;99.90;;;;;;5132049;27;20486;-68
2023/04/25 02:49:05;;;;;;;29.58;9.25;;;8.70;99.90;;;;;;5133039;27;20076;-69
2023/04/25 02:51:31;;;;;;;27.90;9.25;;;8.70;99.90;;;;;;5132556;27;20023;-69
2023/04/25 02:53:56;;;;;;;22.13;8.90;;;8.70;99.90;;;;;;5132770;27;20012;-69
2023/04/25 02:56:22;;;;;;;23.55;9.95;;;8.70;99.90;;;;;;5132828;28;20383;-69
2023/04/25 02:58:48;;;;;;;35.88;11.30;;;8.70;99.90;;;;;;5132982;27;20023;-69
2023/04/25 03:01:14;;;;;;;33.47;11.68;;;8.70;99.90;;;;;;5132547;27;20478;-69
2023/04/25 03:03:40;;;;;;;28.50;11.57;;;8.70;99.90;;;;;;5132926;27;20019;-68
2023/04/25 03:06:05;;;;;;;23.38;10.38;;;8.70;99.90;;;;;;5132734;27;20030;-68
2023/04/25 03:08:32;;;;;;;26.00;10.73;;;8.70;99.90;;;;;;5132895;28;20052;-68
2023/04/25 03:10:58;;;;;;;24.83;10.57;;;8.70;99.90;;;;;;5130471;27;20415;-68
2023/04/25 03:13:24;;;;;;;28.92;10.73;;;8.70;99.90;;;;;;5131230;27;20031;-68
2023/04/25 03:15:50;;;;;;;29.65;9.82;;;8.70;99.90;;;;;;5132338;27;20050;-68
2023/04/25 03:18:16;;;;;;;24.98;9.93;;;8.80;99.90;;;;;;5132439;28;20055;-69
2023/04/25 03:20:42;;;;;;;26.83;10.93;;;8.70;99.90;;;;;;5132869;28;20395;-68
2023/04/25 03:23:08;;;;;;;26.33;10.50;;;8.80;99.90;;;;;;5133218;27;20060;-68
2023/04/25 03:25:34;;;;;;;31.67;11.13;;;8.80;99.90;;;;;;5135520;27;20098;-68
2023/04/25 03:27:59;;;;;;;26.42;10.05;;;8.80;99.90;;;;;;5136883;27;20022;-69
2023/04/25 03:30:25;;;;;;;22.95;9.10;;;8.80;99.90;;;;;;5135842;27;20027;-68
2023/04/25 03:32:51;;;;;;;28.50;10.13;;;8.80;99.90;;;;;;5135805;27;20044;-68
2023/04/25 03:35:17;;;;;;;25.20;8.98;;;8.80;99.90;;;;;;5134765;27;20015;-68
2023/04/25 03:37:45;;;;;;;27.33;10.85;;;8.90;99.90;;;;;;5136551;27;20514;-68
2023/04/25 03:40:11;;;;;;;27.17;9.93;;;8.90;99.90;;;;;;5134340;27;20031;-68
2023/04/25 03:42:37;;;;;;;31.15;9.90;;;8.90;99.90;;;;;;5136995;27;20098;-68
2023/04/25 03:45:03;;;;;;;25.50;9.60;;;8.90;99.90;;;;;;5136214;27;20464;-68
2023/04/25 03:47:29;;;;;;;25.38;9.75;;;8.90;99.90;;;;;;5136288;27;20383;-68
2023/04/25 03:49:55;;;;;;;26.27;9.60;;;8.90;99.90;;;;;;5136616;27;20076;-68
2023/04/25 03:52:20;;;;;;;23.45;9.60;;;8.90;99.90;;;;;;5136470;27;20055;-68
2023/04/25 03:54:46;;;;;;;30.00;10.05;;;8.90;99.90;;;;;;5136249;27;20049;-68
2023/04/25 03:57:12;;;;;;;22.95;9.05;;;8.90;99.90;;;;;;5136355;27;20083;-68
2023/04/25 03:59:38;;;;;;;20.42;9.75;;;8.90;99.90;;;;;;5136102;27;20027;-68
2023/04/25 04:02:03;;;;;;;29.33;10.30;;;8.90;99.90;;;;;;5134873;27;20015;-68
2023/04/25 04:04:29;;;;;;;23.48;9.77;;;8.90;99.90;;;;;;5135920;27;20031;-68
2023/04/25 04:06:55;;;;;;;22.73;9.45;;;8.90;99.90;;;;;;5135880;27;20030;-68
2023/04/25 04:09:21;;;;;;;24.20;9.82;;;8.90;99.90;;;;;;5135997;27;20016;-68
2023/04/25 04:11:47;;;;;;;28.05;10.10;;;8.90;99.90;;;;;;5134731;27;20027;-68
2023/04/25 04:14:13;;;;;;;23.38;8.75;;;8.90;99.90;;;;;;5134589;27;20019;-68
2023/04/25 04:16:38;;;;;;;30.25;9.20;;;8.90;99.90;;;;;;5135633;27;20031;-68
2023/04/25 04:19:05;;;;;;;27.98;9.40;;;8.90;99.90;;;;;;5135876;27;20027;-68
2023/04/25 04:21:31;;;;;;;18.70;8.82;;;8.80;99.90;;;;;;5135880;27;20060;-68
2023/04/25 04:23:59;;;;;;;22.50;8.85;;;8.80;99.90;;;;;;5135535;27;20022;-68
2023/04/25 04:26:25;;;;;;;25.15;9.95;;;8.80;99.90;;;;;;5135791;27;20033;-68
2023/04/25 04:28:53;;;;;;;35.22;10.25;;;8.80;99.90;;;;;;5132825;27;20026;-68
2023/04/25 04:31:23;;;;;;;26.90;9.00;;;8.80;99.90;;;;;;5135634;27;20037;-68
2023/04/25 04:33:49;;;;;;;28.67;10.38;;;8.80;99.90;;;;;;5135601;27;20072;-70
2023/04/25 04:36:15;;;;;;;28.73;9.05;;;8.80;99.90;;;;;;5132159;27;20562;-68
2023/04/25 04:38:42;;;;;;;29.17;10.20;;;8.80;99.90;;;;;;5135620;27;20111;-68
2023/04/25 04:41:08;;;;;;;25.88;10.25;;;8.80;99.90;;;;;;5131619;27;20082;-69
2023/04/25 04:43:33;;;;;;;28.27;10.45;;;8.80;99.90;;;;;;5133621;27;20019;-68
2023/04/25 04:46:03;;;;;;;24.15;9.75;;;8.80;99.90;;;;;;5135316;27;20011;-68
2023/04/25 04:48:32;;;;;;;29.45;9.90;;;8.80;99.90;;;;;;5132755;27;20060;-68
2023/04/25 04:50:58;;;;;;;29.83;9.65;;;8.80;99.90;;;;;;5135199;27;20020;-68
2023/04/25 04:53:24;;;;;;;31.20;9.60;;;8.80;99.90;;;;;;5133562;27;20019;-68
2023/04/25 04:55:50;;;;;;;32.35;10.18;;;8.90;99.90;;;;;;5135095;27;20356;-69
2023/04/25 04:58:15;;;;;;;28.27;9.88;;;8.90;99.90;;;;;;5134643;27;20473;-69
2023/04/25 05:00:41;;;;;;;32.05;9.63;;;8.90;99.90;;;;;;5134030;27;20313;-69
2023/04/25 05:03:07;;;;;;;25.33;10.20;;;8.80;99.90;;;;;;5135136;27;20032;-69
2023/04/25 05:05:33;;;;;;;30.52;11.48;;;8.90;99.90;;;;;;5135036;27;20019;-69
2023/04/25 05:07:58;;;;;;;26.38;10.00;;;8.90;99.90;;;;;;5133977;27;20087;-69
2023/04/25 05:10:25;;;;;;;31.77;10.52;;;9.00;99.90;;;;;;5131214;27;20443;-69
2023/04/25 05:12:50;;;;;;;27.85;10.18;;;9.00;99.90;;;;;;5133936;27;20043;-69
2023/04/25 05:15:16;;;;;;;34.35;11.27;;;9.00;99.90;;;;;;5134612;27;20383;-69
2023/04/25 05:17:42;;;;;;;23.70;11.07;;;9.00;99.90;;;;;;5135081;27;20391;-69
2023/04/25 05:20:09;;;;;;;33.47;10.93;;;8.90;99.90;;;;;;5134166;27;20081;-69
2023/04/25 05:22:35;;;;;;;33.38;11.73;;;9.00;99.90;;;;;;5132890;27;20642;-69
2023/04/25 05:25:01;;;;;;;35.58;11.88;;;9.00;99.90;;;;;;5117873;27;20028;-69
2023/04/25 05:27:27;;;;;;;27.75;10.93;;;9.00;99.90;;;;;;5113934;28;20028;-69
2023/04/25 05:29:52;;;;;;;32.53;12.25;;;9.10;99.90;;;;;;5125856;27;20526;-69
2023/04/25 05:32:18;;;;;;;28.35;10.85;;;9.10;99.90;;;;;;5132805;27;20073;-69
2023/04/25 05:34:44;;;;;;;34.05;10.90;;;9.10;99.90;;;;;;5134376;27;20054;-68
2023/04/25 05:37:10;;;;;;;26.52;10.73;;;9.10;99.90;;;;;;5131302;27;20050;-68
2023/04/25 05:39:35;;;;;;;24.05;9.85;;;9.10;99.90;;;;;;5126293;27;20023;-69
2023/04/25 05:42:01;;;;;;;33.17;10.88;;;9.20;99.90;;;;;;5130798;27;20031;-69
2023/04/25 05:44:27;;;;;;;32.30;11.45;;;9.20;99.90;;;;;;5134087;27;20019;-69
2023/04/25 05:46:53;;;;;;;33.13;10.57;;;9.20;99.90;;;;;;5133150;27;20052;-69
2023/04/25 05:49:19;;;;;;;25.45;11.02;;;9.30;99.90;;;;;;5129902;27;20391;-69
2023/04/25 05:51:45;;;;;;;29.63;11.02;;;9.30;99.90;;;;;;5129854;27;20031;-69
2023/04/25 05:54:10;;;;;;;34.25;10.30;;;9.30;99.90;;;;;;5132530;27;20023;-69
2023/04/25 05:56:36;;;;;;;31.05;9.68;;;9.30;99.90;;;;;;5132697;27;20400;-69
2023/04/25 05:59:02;;;;;;;28.50;10.23;;;9.30;99.90;;;;;;5132764;27;20051;-68
2023/04/25 06:01:28;;;;;;;24.10;9.60;;;9.30;99.90;;;;;;5133831;27;20077;-69
2023/04/25 06:03:54;;;;;;;31.38;10.43;;;9.30;99.90;;;;;;5133361;27;20491;-69
2023/04/25 06:06:19;;;;;;;43.20;11.52;;;9.30;99.90;;;;;;5133498;27;20425;-69
2023/04/25 06:08:45;;;;;;;59.97;12.75;;;9.40;99.90;;;;;;5132687;27;20531;-69
2023/04/25 06:11:11;;;;;;;45.72;10.70;;;9.50;99.90;;;;;;5132568;27;20426;-70
2023/04/25 06:13:37;;;;;;;39.78;11.13;;;9.50;99.90;;;;;;5133038;27;20506;-69
2023/04/25 06:16:03;;;;;;;32.33;10.05;;;9.50;99.90;;;;;;5132809;27;20023;-69
2023/04/25 06:18:28;;;;;;;35.58;10.80;;;9.50;99.90;;;;;;5132094;27;20757;-70
2023/04/25 06:20:54;;;;;;;38.40;10.25;;;9.60;99.90;;;;;;5133812;27;20092;-69
2023/04/25 06:23:20;;;;;;;28.17;9.45;;;9.60;99.90;;;;;;5131615;27;20020;-71
2023/04/25 06:25:46;;;;;;;28.35;11.05;;;9.70;99.90;;;;;;5132934;27;20030;-70
2023/04/25 06:28:11;;;;;;;36.65;10.45;;;9.80;99.90;;;;;;5131839;27;20030;-70
2023/04/25 06:30:37;;;;;;;37.85;10.80;;;9.80;99.90;;;;;;5132771;27;20082;-70
2023/04/25 06:33:03;;;;;;;58.63;11.57;;;9.80;99.90;;;;;;5133760;27;20038;-71
2023/04/25 06:35:28;;;;;;;352.55;41.08;;;9.80;99.90;;;;;;5130939;27;20475;-70
2023/04/25 06:37:54;;;;;;;71.85;15.05;;;9.80;99.90;;;;;;5133536;27;20160;-71
2023/04/25 06:40:20;;;;;;;30.08;9.50;;;9.90;99.90;;;;;;5132159;27;20698;-70
2023/04/25 06:42:46;;;;;;;114.60;16.30;;;9.90;99.90;;;;;;5132348;27;20035;-70
2023/04/25 06:45:11;;;;;;;38.20;10.35;;;10.00;99.90;;;;;;5128680;27;20606;-70
2023/04/25 06:47:37;;;;;;;37.58;10.90;;;9.90;99.90;;;;;;5131413;27;20019;-70
2023/04/25 06:50:03;;;;;;;35.90;9.63;;;10.00;99.90;;;;;;5125224;27;20496;-70
2023/04/25 06:52:29;;;;;;;26.85;9.02;;;10.00;99.90;;;;;;5126534;27;20019;-70
2023/04/25 06:54:55;;;;;;;30.20;9.27;;;10.00;99.90;;;;;;5129837;27;20026;-70
2023/04/25 06:57:21;;;;;;;32.00;9.48;;;10.00;99.90;;;;;;5130907;28;20067;-70
2023/04/25 06:59:46;;;;;;;29.05;10.63;;;10.00;99.90;;;;;;5134706;27;20498;-71
2023/04/25 07:02:12;;;;;;;33.03;9.38;;;10.10;99.90;;;;;;5136992;27;20110;-71
2023/04/25 07:04:38;;;;;;;22.08;8.68;;;10.10;99.90;;;;;;5137162;27;20019;-70
2023/04/25 07:07:03;;;;;;;26.17;8.65;;;10.20;99.90;;;;;;5137032;27;20027;-71
2023/04/25 07:09:30;;;;;;;19.58;6.35;;;10.20;99.90;;;;;;5137064;27;20129;-70
2023/04/25 07:11:56;;;;;;;24.30;6.47;;;10.20;99.90;;;;;;5136917;27;20023;-70
2023/04/25 07:14:22;;;;;;;20.17;4.65;;;10.30;99.90;;;;;;5136674;27;20019;-71
2023/04/25 07:16:48;;;;;;;18.70;4.75;;;10.40;99.90;;;;;;5136690;27;20483;-71
2023/04/25 07:19:13;;;;;;;19.27;4.60;;;10.40;99.90;;;;;;5135549;27;20062;-71
2023/04/25 07:21:39;;;;;;;19.20;4.35;;;10.50;99.90;;;;;;5133465;27;20027;-70
2023/04/25 07:24:05;;;;;;;11.27;3.30;;;10.50;99.90;;;;;;5134972;27;20053;-74
2023/04/25 07:26:31;;;;;;;11.02;3.67;;;10.60;99.90;;;;;;5135789;27;20038;-71
2023/04/25 07:28:57;;;;;;;14.65;3.65;;;10.70;99.90;;;;;;5135860;27;20475;-71
2023/04/25 07:31:23;;;;;;;14.82;3.65;;;10.70;99.90;;;;;;5136329;27;20058;-71
2023/04/25 07:33:49;;;;;;;12.43;3.88;;;10.80;99.90;;;;;;5136694;27;20119;-69
2023/04/25 07:36:15;;;;;;;9.68;2.90;;;10.80;99.90;;;;;;5133967;27;20483;-69
2023/04/25 07:38:41;;;;;;;12.52;3.17;;;10.90;99.90;;;;;;5135878;27;20168;-69
2023/04/25 07:41:07;;;;;;;12.88;3.38;;;11.00;99.90;;;;;;5136880;27;20475;-69
2023/04/25 07:43:33;;;;;;;11.63;3.10;;;11.00;99.90;;;;;;5135954;27;20023;-70
2023/04/25 07:45:58;;;;;;;15.05;2.88;;;11.10;99.90;;;;;;5135575;27;20471;-70
2023/04/25 07:48:24;;;;;;;12.40;3.05;;;11.20;99.90;;;;;;5136950;27;20027;-69
2023/04/25 07:50:50;;;;;;;9.90;2.65;;;11.20;99.90;;;;;;5135831;27;20020;-69
2023/04/25 07:53:17;;;;;;;11.18;2.60;;;11.30;99.90;;;;;;5135773;27;20027;-69
2023/04/25 07:55:43;;;;;;;12.00;2.88;;;11.20;99.90;;;;;;5136135;27;20023;-69
2023/04/25 07:58:09;;;;;;;13.55;3.28;;;11.20;99.90;;;;;;5135627;27;20104;-69
2023/04/25 08:00:36;;;;;;;11.18;3.65;;;11.30;99.90;;;;;;5136827;27;20019;-69
2023/04/25 08:03:02;;;;;;;13.82;2.78;;;11.40;99.90;;;;;;5136451;27;20016;-69
2023/04/25 08:05:28;;;;;;;8.75;2.70;;;11.40;99.90;;;;;;5135519;27;20035;-69
2023/04/25 08:07:55;;;;;;;10.55;3.20;;;11.60;99.90;;;;;;5136446;27;20034;-69
2023/04/25 08:10:22;;;;;;;14.15;3.10;;;11.50;99.90;;;;;;5135886;27;20020;-69
2023/04/25 08:12:49;;;;;;;11.63;3.00;;;11.50;99.90;;;;;;5136331;27;20039;-70
2023/04/25 08:15:14;;;;;;;12.25;3.00;;;11.60;99.90;;;;;;5136412;27;20019;-70
2023/04/25 08:17:41;;;;;;;10.30;3.35;;;11.80;99.90;;;;;;5114549;27;20028;-70
2023/04/25 08:20:07;;;;;;;9.10;3.30;;;11.70;99.90;;;;;;5115541;28;20020;-71
2023/04/25 08:22:33;;;;;;;9.77;3.95;;;11.80;99.90;;;;;;5115181;28;20024;-71
2023/04/25 08:24:59;;;;;;;14.82;3.60;;;11.80;99.90;;;;;;5133419;27;20095;-71
2023/04/25 08:27:25;;;;;;;11.75;3.28;;;11.90;99.90;;;;;;5133956;27;20106;-70
2023/04/25 08:29:51;;;;;;;8.48;3.38;;;12.20;99.90;;;;;;5136319;27;20033;-71
2023/04/25 08:32:17;;;;;;;12.73;3.60;;;12.10;99.90;;;;;;5134746;27;20031;-69
2023/04/25 08:34:43;;;;;;;14.82;2.90;;;11.90;99.90;;;;;;5127807;27;20079;-70
2023/04/25 08:37:10;;;;;;;11.10;3.03;;;11.80;99.90;;;;;;5126916;27;20088;-70
2023/04/25 08:39:38;;;;;;;16.52;3.63;;;11.90;99.90;;;;;;5134543;27;20486;-70
2023/04/25 08:42:09;;;;;;;14.05;3.30;;;12.00;99.90;;;;;;5135998;27;20023;-70
2023/04/25 08:44:36;;;;;;;10.48;3.35;;;12.00;99.90;;;;;;5130636;27;20069;-71
2023/04/25 08:47:04;;;;;;;11.18;3.42;;;12.00;99.90;;;;;;5133157;27;20019;-69
2023/04/25 08:49:32;;;;;;;15.05;3.25;;;11.80;99.90;;;;;;5133477;27;20110;-69
2023/04/25 08:52:00;;;;;;;11.60;2.83;;;11.80;99.90;;;;;;5135037;27;20055;-69
2023/04/25 08:54:28;;;;;;;17.60;2.95;;;11.70;99.90;;;;;;5131061;27;20024;-70
2023/04/25 08:56:55;;;;;;;12.02;2.72;;;11.70;99.90;;;;;;5133318;27;20027;-70
2023/04/25 08:59:22;;;;;;;13.88;3.08;;;11.60;99.90;;;;;;5132066;27;20035;-69
2023/04/25 09:01:50;;;;;;;11.88;2.70;;;11.60;99.90;;;;;;5131700;27;20472;-69
2023/04/25 09:04:16;;;;;;;22.02;3.65;;;11.50;99.90;;;;;;5134512;27;20023;-70
2023/04/25 09:06:41;;;;;;;17.17;2.95;;;11.60;99.90;;;;;;5133654;27;20038;-70
2023/04/25 09:09:09;;;;;;;11.52;2.88;;;11.60;99.90;;;;;;5135303;27;20023;-70
2023/04/25 09:11:36;;;;;;;10.02;2.58;;;11.50;99.90;;;;;;5134879;27;20433;-68
2023/04/25 09:14:22;;;;;;;10.77;2.47;;;11.50;99.90;;;;;;5134717;27;20379;-70
2023/04/25 09:17:07;;;;;;;10.52;2.83;;;11.50;99.90;;;;;;5129011;27;20038;-70
2023/04/25 09:19:39;;;;;;;11.95;2.45;;;11.50;99.90;;;;;;5108718;27;20038;-70
2023/04/25 09:22:06;;;;;;;11.05;2.90;;;11.40;99.90;;;;;;5115685;27;20019;-69
2023/04/25 09:24:37;;;;;;;10.13;2.92;;;11.40;99.90;;;;;;5117111;27;20034;-70
2023/04/25 09:27:04;;;;;;;12.70;3.45;;;11.40;99.90;;;;;;5114208;27;20092;-68
2023/04/25 09:29:34;;;;;;;9.13;2.38;;;11.50;99.90;;;;;;5115323;27;20072;-69
2023/04/25 09:32:15;;;;;;;11.68;2.90;;;11.50;99.90;;;;;;5116549;27;20030;-68
2023/04/25 09:34:43;;;;;;;11.63;2.55;;;11.50;99.90;;;;;;5116970;27;20103;-70
2023/04/25 09:37:10;;;;;;;8.95;2.47;;;11.60;99.90;;;;;;5121168;27;20061;-70
2023/04/25 09:39:37;;;;;;;11.55;2.45;;;11.60;99.90;;;;;;5117153;27;20641;-70
2023/04/25 09:42:04;;;;;;;12.30;2.40;;;11.80;99.90;;;;;;5117260;27;20031;-70
2023/04/25 09:44:30;;;;;;;11.65;2.30;;;12.20;99.90;;;;;;5115604;27;20027;-70
2023/04/25 09:46:57;;;;;;;9.50;3.10;;;12.60;99.90;;;;;;5115808;27;20020;-70
2023/04/25 09:49:23;;;;;;;14.90;2.92;;;13.00;99.90;;;;;;5113650;27;20126;-70
2023/04/25 09:51:56;;;;;;;8.95;2.22;;;13.10;99.90;;;;;;5119250;27;20051;-70
2023/04/25 09:54:26;;;;;;;13.30;2.63;;;13.30;99.90;;;;;;5114458;27;20035;-71
2023/04/25 09:56:53;;;;;;;8.18;2.00;;;13.60;99.90;;;;;;5116480;27;20053;-70
2023/04/25 09:59:22;;;;;;;13.30;2.13;;;14.00;99.90;;;;;;5115491;27;20393;-70
2023/04/25 10:01:52;;;;;;;10.20;2.05;;;14.10;99.90;;;;;;5114422;27;20011;-70
2023/04/25 10:04:25;;;;;;;10.30;2.45;;;14.10;99.90;;;;;;5111432;27;20027;-70
2023/04/25 10:06:54;;;;;;;8.55;2.25;;;14.10;99.90;;;;;;5115586;27;20223;-70
2023/04/25 10:09:21;;;;;;;10.35;2.25;;;13.80;99.90;;;;;;5115363;27;20027;-70
2023/04/25 10:11:50;;;;;;;8.38;1.90;;;13.60;99.90;;;;;;5112374;27;20069;-70
2023/04/25 10:14:18;;;;;;;7.40;1.75;;;13.50;99.90;;;;;;5119241;27;20027;-70
2023/04/25 10:16:45;;;;;;;6.07;1.55;;;13.30;99.90;;;;;;5115914;27;20035;-70
2023/04/25 10:19:11;;;;;;;7.07;1.92;;;13.20;99.90;;;;;;5115072;27;20043;-71
2023/04/25 10:21:57;;;;;;;5.93;1.83;;;13.20;99.90;;;;;;5117449;27;20118;-71
2023/04/25 10:24:25;;;;;;;7.88;1.52;;;13.00;99.90;;;;;;5115876;27;20034;-71
2023/04/25 10:26:51;;;;;;;5.68;1.80;;;13.00;99.90;;;;;;5116131;27;20080;-71
2023/04/25 10:29:27;;;;;;;10.20;2.17;;;12.90;99.90;;;;;;5114522;27;20027;-72
2023/04/25 10:31:53;;;;;;;14.75;2.72;;;12.70;99.90;;;;;;5114797;27;20019;-72
2023/04/25 10:34:23;;;;;;;5.55;2.00;;;12.90;99.90;;;;;;5113959;27;20371;-71
2023/04/25 10:36:51;;;;;;;10.32;2.17;;;13.30;99.90;;;;;;5114582;27;20047;-71
2023/04/25 10:39:27;;;;;;;10.45;1.95;;;13.70;99.90;;;;;;5116201;27;20039;-71
2023/04/25 10:41:57;;;;;;;6.18;1.80;;;14.00;99.90;;;;;;5115408;27;20398;-71
2023/04/25 10:44:27;;;;;;;8.10;1.95;;;14.30;99.90;;;;;;5111618;27;20528;-72
2023/04/25 10:46:58;;;;;;;9.52;1.92;;;14.30;99.90;;;;;;5116829;27;20011;-71
2023/04/25 10:49:42;;;;;;;5.13;1.42;;;14.60;99.90;;;;;;5116773;27;20504;-72
2023/04/25 10:52:28;;;;;;;5.57;1.60;;;14.40;99.90;;;;;;5114326;27;20348;-72
2023/04/25 10:54:57;;;;;;;6.28;1.25;;;14.40;99.90;;;;;;5117626;27;20049;-72
2023/04/25 10:57:43;;;;;;;4.95;1.60;;;14.50;99.90;;;;;;5115209;27;20088;-71
2023/04/25 11:00:26;;;;;;;5.38;1.65;;;14.40;99.90;;;;;;5113941;27;20403;-72
2023/04/25 11:02:53;;;;;;;6.72;1.60;;;14.10;99.90;;;;;;5115808;27;20031;-71
2023/04/25 11:05:36;;;;;;;4.88;1.50;;;14.10;99.90;;;;;;5117902;27;20062;-72
2023/04/25 11:08:06;;;;;;;5.35;1.80;;;14.60;99.90;;;;;;5117418;27;20543;-72
2023/04/25 11:10:35;;;;;;;4.97;1.40;;;14.50;99.90;;;;;;5113414;27;20023;-72
2023/04/25 11:13:01;;;;;;;4.30;1.48;;;14.40;99.90;;;;;;5116942;27;20480;-72
2023/04/25 11:15:27;;;;;;;5.55;2.00;;;14.50;99.90;;;;;;5114802;27;20028;-71
2023/04/25 11:17:53;;;;;;;7.22;2.33;;;14.50;99.90;;;;;;5115200;27;20038;-71
2023/04/25 11:20:19;;;;;;;4.93;1.95;;;14.60;99.90;;;;;;5114091;27;20584;-72
2023/04/25 11:22:46;;;;;;;5.20;2.03;;;14.60;99.90;;;;;;5112460;27;20389;-72
2023/04/25 11:25:15;;;;;;;7.53;1.70;;;14.50;99.90;;;;;;5117514;27;20034;-72
2023/04/25 11:27:54;;;;;;;8.57;2.58;;;14.40;99.90;;;;;;5117468;27;20031;-72
2023/04/25 11:30:21;;;;;;;6.75;2.20;;;14.30;99.90;;;;;;5113470;27;20027;-72
2023/04/25 11:32:47;;;;;;;8.35;2.05;;;14.10;99.90;;;;;;5113710;27;20474;-72
2023/04/25 11:35:13;;;;;;;10.55;1.60;;;13.90;99.90;;;;;;5115358;27;20080;-71
2023/04/25 11:37:40;;;;;;;7.55;1.90;;;13.80;99.90;;;;;;5119302;27;20027;-71
2023/04/25 11:40:08;;;;;;;7.03;1.95;;;14.00;99.90;;;;;;5113604;27;20061;-71
2023/04/25 11:42:34;;;;;;;7.03;1.90;;;14.10;99.90;;;;;;5119138;27;20049;-72
2023/04/25 11:45:00;;;;;;;9.18;2.10;;;14.10;99.90;;;;;;5111298;27;20042;-71
2023/04/25 11:47:32;;;;;;;5.82;1.85;;;14.20;99.90;;;;;;5118237;27;20023;-70
2023/04/25 11:50:03;;;;;;;4.30;1.33;;;14.10;99.90;;;;;;5115501;27;20793;-70
2023/04/25 11:52:42;;;;;;;6.88;1.73;;;14.00;99.90;;;;;;5114960;27;20031;-70
2023/04/25 11:55:19;;;;;;;6.20;2.22;;;14.00;99.90;;;;;;5119579;27;20475;-72
2023/04/25 11:57:50;;;;;;;6.75;1.65;;;14.10;99.90;;;;;;5119404;27;20123;-72
2023/04/25 12:00:21;;;;;;;8.10;1.48;;;14.10;99.90;;;;;;5119526;27;20043;-73
2023/04/25 12:02:52;;;;;;;5.30;1.80;;;14.20;99.90;;;;;;5117849;27;20027;-74
2023/04/25 12:05:18;;;;;;;8.50;1.20;;;14.20;99.90;;;;;;5121019;27;20102;-74
2023/04/25 12:07:44;;;;;;;5.40;1.40;;;14.20;99.90;;;;;;5121599;27;20130;-74
2023/04/25 12:10:15;;;;;;;4.45;1.15;;;14.30;99.90;;;;;;5117107;27;20042;-73
2023/04/25 12:12:45;;;;;;;7.13;1.50;;;14.30;99.90;;;;;;5120629;27;20032;-72
2023/04/25 12:15:19;;;;;;;4.38;1.58;;;14.30;99.90;;;;;;5115857;27;20039;-71
2023/04/25 12:17:49;;;;;;;4.70;1.30;;;14.30;99.90;;;;;;5118683;27;20549;-71
2023/04/25 12:20:25;;;;;;;3.33;1.60;;;14.20;99.90;;;;;;5118811;27;20080;-70
2023/04/25 12:22:52;;;;;;;5.43;1.40;;;14.20;99.90;;;;;;5120958;27;20070;-71
2023/04/25 12:25:38;;;;;;;6.03;1.23;;;14.20;99.90;;;;;;5121267;27;20035;-71
2023/04/25 12:28:12;;;;;;;11.00;1.80;;;14.20;99.90;;;;;;5116195;27;20337;-70
2023/04/25 12:30:58;;;;;;;5.68;1.25;;;14.50;99.90;;;;;;5120926;27;20038;-69
2023/04/25 12:33:26;;;;;;;5.90;1.60;;;14.50;99.90;;;;;;5116513;27;20115;-70
2023/04/25 12:35:53;;;;;;;7.40;1.40;;;14.60;99.90;;;;;;5118175;27;20020;-71
2023/04/25 12:38:42;;;;;;;7.40;1.40;;;14.30;99.90;;;;;;5120735;27;20032;-70
2023/04/25 12:41:08;;;;;;;9.32;1.75;;;14.10;99.90;;;;;;5108138;27;20034;-70
2023/04/25 12:43:34;;;;;;;8.23;1.58;;;13.80;99.90;;;;;;5117059;27;20034;-71